sensor_id;sensor_type;location;lat;lon;timestamp;P1;durP1;ratioP1;P2;durP2;ratioP2
54005;SDS011;39919;38.160;-122.260;2022-07-18T00:02:16;9.35;;;2.47;;
54005;SDS011;39919;38.160;-122.260;2022-07-18T00:04:46;13.30;;;2.65;;
54005;SDS011;39919;38.160;-122.260;2022-07-18T00:07:18;14.82;;;2.72;;
54005;SDS011;39919;38.160;-122.260;2022-07-18T00:09:57;12.55;;;3.25;;
54005;SDS011;39919;38.160;-122.260;2022-07-18T00:12:29;10.68;;;2.88;;
54005;SDS011;39919;38.160;-122.260;2022-07-18T00:14:58;11.45;;;2.90;;
54005;SDS011;39919;38.160;-122.260;2022-07-18T00:17:29;13.93;;;3.63;;
54005;SDS011;39919;38.160;-122.260;2022-07-18T00:19:58;12.30;;;3.00;;
54005;SDS011;39919;38.160;-122.260;2022-07-18T00:22:29;13.48;;;2.55;;
54005;SDS011;39919;38.160;-122.260;2022-07-18T00:24:58;15.60;;;3.08;;
54005;SDS011;39919;38.160;-122.260;2022-07-18T00:27:27;16.35;;;3.65;;
54005;SDS011;39919;38.160;-122.260;2022-07-18T00:29:59;17.92;;;4.03;;
54005;SDS011;39919;38.160;-122.260;2022-07-18T00:32:28;19.15;;;3.63;;
54005;SDS011;39919;38.160;-122.260;2022-07-18T00:34:57;14.13;;;2.92;;
54005;SDS011;39919;38.160;-122.260;2022-07-18T00:37:29;14.35;;;3.33;;
54005;SDS011;39919;38.160;-122.260;2022-07-18T00:42:26;16.85;;;4.10;;
54005;SDS011;39919;38.160;-122.260;2022-07-18T00:44:56;13.98;;;3.15;;
54005;SDS011;39919;38.160;-122.260;2022-07-18T00:47:28;13.75;;;3.28;;
54005;SDS011;39919;38.160;-122.260;2022-07-18T00:50:00;16.08;;;3.60;;
54005;SDS011;39919;38.160;-122.260;2022-07-18T00:52:37;15.77;;;3.75;;
54005;SDS011;39919;38.160;-122.260;2022-07-18T00:55:09;17.85;;;3.40;;
54005;SDS011;39919;38.160;-122.260;2022-07-18T00:57:44;18.25;;;3.80;;
54005;SDS011;39919;38.160;-122.260;2022-07-18T01:00:14;16.40;;;3.65;;
54005;SDS011;39919;38.160;-122.260;2022-07-18T01:03:00;19.80;;;3.28;;
54005;SDS011;39919;38.160;-122.260;2022-07-18T01:05:35;15.77;;;3.58;;
54005;SDS011;39919;38.160;-122.260;2022-07-18T01:08:18;22.65;;;4.60;;
54005;SDS011;39919;38.160;-122.260;2022-07-18T01:10:50;20.92;;;3.75;;
54005;SDS011;39919;38.160;-122.260;2022-07-18T01:13:21;18.42;;;3.38;;
54005;SDS011;39919;38.160;-122.260;2022-07-18T01:15:56;27.02;;;4.07;;
54005;SDS011;39919;38.160;-122.260;2022-07-18T01:18:36;17.90;;;3.20;;
54005;SDS011;39919;38.160;-122.260;2022-07-18T01:21:10;19.35;;;3.45;;
54005;SDS011;39919;38.160;-122.260;2022-07-18T01:23:41;18.13;;;4.85;;
54005;SDS011;39919;38.160;-122.260;2022-07-18T01:26:13;13.02;;;3.47;;
54005;SDS011;39919;38.160;-122.260;2022-07-18T01:28:48;21.25;;;3.75;;
54005;SDS011;39919;38.160;-122.260;2022-07-18T01:31:21;16.35;;;3.70;;
54005;SDS011;39919;38.160;-122.260;2022-07-18T01:33:54;16.00;;;3.35;;
54005;SDS011;39919;38.160;-122.260;2022-07-18T01:36:25;12.70;;;3.33;;
54005;SDS011;39919;38.160;-122.260;2022-07-18T01:38:55;15.95;;;3.83;;
54005;SDS011;39919;38.160;-122.260;2022-07-18T01:41:24;15.05;;;3.10;;
54005;SDS011;39919;38.160;-122.260;2022-07-18T01:43:53;13.43;;;3.50;;
54005;SDS011;39919;38.160;-122.260;2022-07-18T01:46:28;13.38;;;3.42;;
54005;SDS011;39919;38.160;-122.260;2022-07-18T01:49:04;14.68;;;3.63;;
54005;SDS011;39919;38.160;-122.260;2022-07-18T01:51:36;18.67;;;5.00;;
54005;SDS011;39919;38.160;-122.260;2022-07-18T01:54:05;21.48;;;4.28;;
54005;SDS011;39919;38.160;-122.260;2022-07-18T01:56:36;24.92;;;4.63;;
54005;SDS011;39919;38.160;-122.260;2022-07-18T01:59:10;16.92;;;3.70;;
54005;SDS011;39919;38.160;-122.260;2022-07-18T02:01:41;22.65;;;4.35;;
54005;SDS011;39919;38.160;-122.260;2022-07-18T02:04:15;18.73;;;4.32;;
54005;SDS011;39919;38.160;-122.260;2022-07-18T02:06:47;21.35;;;5.20;;
54005;SDS011;39919;38.160;-122.260;2022-07-18T02:09:16;19.25;;;4.18;;
54005;SDS011;39919;38.160;-122.260;2022-07-18T02:11:45;19.10;;;4.40;;
54005;SDS011;39919;38.160;-122.260;2022-07-18T02:14:14;18.52;;;3.60;;
54005;SDS011;39919;38.160;-122.260;2022-07-18T02:16:43;15.25;;;3.55;;
54005;SDS011;39919;38.160;-122.260;2022-07-18T02:19:13;18.45;;;3.78;;
54005;SDS011;39919;38.160;-122.260;2022-07-18T02:21:49;20.73;;;4.90;;
54005;SDS011;39919;38.160;-122.260;2022-07-18T02:24:18;19.17;;;3.70;;
54005;SDS011;39919;38.160;-122.260;2022-07-18T02:26:47;19.23;;;4.13;;
54005;SDS011;39919;38.160;-122.260;2022-07-18T02:29:16;17.27;;;4.50;;
54005;SDS011;39919;38.160;-122.260;2022-07-18T02:31:48;21.90;;;5.13;;
54005;SDS011;39919;38.160;-122.260;2022-07-18T02:34:17;19.92;;;5.25;;
54005;SDS011;39919;38.160;-122.260;2022-07-18T02:36:48;27.75;;;4.97;;
54005;SDS011;39919;38.160;-122.260;2022-07-18T02:39:19;24.63;;;4.53;;
54005;SDS011;39919;38.160;-122.260;2022-07-18T02:41:48;19.88;;;3.97;;
54005;SDS011;39919;38.160;-122.260;2022-07-18T02:44:17;20.65;;;5.03;;
54005;SDS011;39919;38.160;-122.260;2022-07-18T02:49:14;26.60;;;5.65;;
54005;SDS011;39919;38.160;-122.260;2022-07-18T02:51:59;21.83;;;5.25;;
54005;SDS011;39919;38.160;-122.260;2022-07-18T02:54:27;25.40;;;5.72;;
54005;SDS011;39919;38.160;-122.260;2022-07-18T02:56:58;25.77;;;5.20;;
54005;SDS011;39919;38.160;-122.260;2022-07-18T02:59:29;21.80;;;4.65;;
54005;SDS011;39919;38.160;-122.260;2022-07-18T03:01:58;23.02;;;5.00;;
54005;SDS011;39919;38.160;-122.260;2022-07-18T03:04:30;21.42;;;4.15;;
54005;SDS011;39919;38.160;-122.260;2022-07-18T03:07:02;20.85;;;5.03;;
54005;SDS011;39919;38.160;-122.260;2022-07-18T03:09:31;19.90;;;5.18;;
54005;SDS011;39919;38.160;-122.260;2022-07-18T03:12:00;19.58;;;4.68;;
54005;SDS011;39919;38.160;-122.260;2022-07-18T03:14:33;22.88;;;4.97;;
54005;SDS011;39919;38.160;-122.260;2022-07-18T03:17:02;24.90;;;5.93;;
54005;SDS011;39919;38.160;-122.260;2022-07-18T03:19:33;22.85;;;4.53;;
54005;SDS011;39919;38.160;-122.260;2022-07-18T03:22:04;25.23;;;4.90;;
54005;SDS011;39919;38.160;-122.260;2022-07-18T03:24:33;22.95;;;4.50;;
54005;SDS011;39919;38.160;-122.260;2022-07-18T03:27:02;25.05;;;4.63;;
54005;SDS011;39919;38.160;-122.260;2022-07-18T03:29:31;22.20;;;3.83;;
54005;SDS011;39919;38.160;-122.260;2022-07-18T03:32:00;26.70;;;5.15;;
54005;SDS011;39919;38.160;-122.260;2022-07-18T03:34:30;21.40;;;4.65;;
54005;SDS011;39919;38.160;-122.260;2022-07-18T03:36:59;30.55;;;4.80;;
54005;SDS011;39919;38.160;-122.260;2022-07-18T03:39:31;24.90;;;4.80;;
54005;SDS011;39919;38.160;-122.260;2022-07-18T03:42:04;32.58;;;5.75;;
54005;SDS011;39919;38.160;-122.260;2022-07-18T03:44:36;24.27;;;4.72;;
54005;SDS011;39919;38.160;-122.260;2022-07-18T03:47:07;29.50;;;6.45;;
54005;SDS011;39919;38.160;-122.260;2022-07-18T03:49:37;24.23;;;4.57;;
54005;SDS011;39919;38.160;-122.260;2022-07-18T03:52:06;26.40;;;4.32;;
54005;SDS011;39919;38.160;-122.260;2022-07-18T03:54:39;32.80;;;5.13;;
54005;SDS011;39919;38.160;-122.260;2022-07-18T03:57:18;22.58;;;4.22;;
54005;SDS011;39919;38.160;-122.260;2022-07-18T03:59:55;22.10;;;4.13;;
54005;SDS011;39919;38.160;-122.260;2022-07-18T04:02:24;25.08;;;4.93;;
54005;SDS011;39919;38.160;-122.260;2022-07-18T04:04:56;25.33;;;5.25;;
54005;SDS011;39919;38.160;-122.260;2022-07-18T04:07:25;25.23;;;4.30;;
54005;SDS011;39919;38.160;-122.260;2022-07-18T04:09:56;23.20;;;4.88;;
54005;SDS011;39919;38.160;-122.260;2022-07-18T04:12:25;26.02;;;4.22;;
54005;SDS011;39919;38.160;-122.260;2022-07-18T04:14:54;26.02;;;4.95;;
54005;SDS011;39919;38.160;-122.260;2022-07-18T04:17:23;33.95;;;5.18;;
54005;SDS011;39919;38.160;-122.260;2022-07-18T04:19:53;23.90;;;4.68;;
54005;SDS011;39919;38.160;-122.260;2022-07-18T04:22:22;26.65;;;5.55;;
54005;SDS011;39919;38.160;-122.260;2022-07-18T04:24:57;28.30;;;4.55;;
54005;SDS011;39919;38.160;-122.260;2022-07-18T04:27:26;21.42;;;4.10;;
54005;SDS011;39919;38.160;-122.260;2022-07-18T04:29:56;24.52;;;4.13;;
54005;SDS011;39919;38.160;-122.260;2022-07-18T04:32:25;20.33;;;3.80;;
54005;SDS011;39919;38.160;-122.260;2022-07-18T04:34:54;28.55;;;4.55;;
54005;SDS011;39919;38.160;-122.260;2022-07-18T04:37:23;24.08;;;5.75;;
54005;SDS011;39919;38.160;-122.260;2022-07-18T04:39:52;31.40;;;4.75;;
54005;SDS011;39919;38.160;-122.260;2022-07-18T04:42:25;24.67;;;4.25;;
54005;SDS011;39919;38.160;-122.260;2022-07-18T04:44:56;28.35;;;5.57;;
54005;SDS011;39919;38.160;-122.260;2022-07-18T04:47:25;24.88;;;5.00;;
54005;SDS011;39919;38.160;-122.260;2022-07-18T04:49:56;25.20;;;4.40;;
54005;SDS011;39919;38.160;-122.260;2022-07-18T04:52:25;25.92;;;4.75;;
54005;SDS011;39919;38.160;-122.260;2022-07-18T04:54:54;24.08;;;4.80;;
54005;SDS011;39919;38.160;-122.260;2022-07-18T04:57:28;22.95;;;4.70;;
54005;SDS011;39919;38.160;-122.260;2022-07-18T04:59:58;33.20;;;5.70;;
54005;SDS011;39919;38.160;-122.260;2022-07-18T05:02:27;24.92;;;4.05;;
54005;SDS011;39919;38.160;-122.260;2022-07-18T05:04:59;26.60;;;5.20;;
54005;SDS011;39919;38.160;-122.260;2022-07-18T05:07:30;34.22;;;5.90;;
54005;SDS011;39919;38.160;-122.260;2022-07-18T05:09:59;30.70;;;5.38;;
54005;SDS011;39919;38.160;-122.260;2022-07-18T05:12:34;25.35;;;4.50;;
54005;SDS011;39919;38.160;-122.260;2022-07-18T05:15:04;19.92;;;4.30;;
54005;SDS011;39919;38.160;-122.260;2022-07-18T05:17:35;29.92;;;3.90;;
54005;SDS011;39919;38.160;-122.260;2022-07-18T05:20:05;22.33;;;4.18;;
54005;SDS011;39919;38.160;-122.260;2022-07-18T05:22:35;35.70;;;5.85;;
54005;SDS011;39919;38.160;-122.260;2022-07-18T05:25:05;30.08;;;3.70;;
54005;SDS011;39919;38.160;-122.260;2022-07-18T05:27:37;32.10;;;6.13;;
54005;SDS011;39919;38.160;-122.260;2022-07-18T05:32:35;28.67;;;4.75;;
54005;SDS011;39919;38.160;-122.260;2022-07-18T05:35:06;28.35;;;5.70;;
54005;SDS011;39919;38.160;-122.260;2022-07-18T05:37:36;32.05;;;4.78;;
54005;SDS011;39919;38.160;-122.260;2022-07-18T05:40:06;41.42;;;6.05;;
54005;SDS011;39919;38.160;-122.260;2022-07-18T05:42:38;22.17;;;4.65;;
54005;SDS011;39919;38.160;-122.260;2022-07-18T05:45:08;20.38;;;4.03;;
54005;SDS011;39919;38.160;-122.260;2022-07-18T05:47:38;23.88;;;4.63;;
54005;SDS011;39919;38.160;-122.260;2022-07-18T05:50:08;23.70;;;3.85;;
54005;SDS011;39919;38.160;-122.260;2022-07-18T05:52:43;24.02;;;5.13;;
54005;SDS011;39919;38.160;-122.260;2022-07-18T05:55:21;32.78;;;5.38;;
54005;SDS011;39919;38.160;-122.260;2022-07-18T05:57:52;34.85;;;5.40;;
54005;SDS011;39919;38.160;-122.260;2022-07-18T06:00:29;29.75;;;5.28;;
54005;SDS011;39919;38.160;-122.260;2022-07-18T06:02:59;28.20;;;4.15;;
54005;SDS011;39919;38.160;-122.260;2022-07-18T06:05:29;32.92;;;5.95;;
54005;SDS011;39919;38.160;-122.260;2022-07-18T06:07:58;51.00;;;7.68;;
54005;SDS011;39919;38.160;-122.260;2022-07-18T06:10:27;38.45;;;6.63;;
54005;SDS011;39919;38.160;-122.260;2022-07-18T06:12:57;26.35;;;4.25;;
54005;SDS011;39919;38.160;-122.260;2022-07-18T06:15:27;41.17;;;6.32;;
54005;SDS011;39919;38.160;-122.260;2022-07-18T06:17:57;32.22;;;4.80;;
54005;SDS011;39919;38.160;-122.260;2022-07-18T06:20:28;36.53;;;4.75;;
54005;SDS011;39919;38.160;-122.260;2022-07-18T06:22:57;28.13;;;5.28;;
54005;SDS011;39919;38.160;-122.260;2022-07-18T06:25:26;27.17;;;4.80;;
54005;SDS011;39919;38.160;-122.260;2022-07-18T06:30:23;37.92;;;5.80;;
54005;SDS011;39919;38.160;-122.260;2022-07-18T06:32:55;36.67;;;6.10;;
54005;SDS011;39919;38.160;-122.260;2022-07-18T06:35:24;26.75;;;4.72;;
54005;SDS011;39919;38.160;-122.260;2022-07-18T06:37:53;37.03;;;5.97;;
54005;SDS011;39919;38.160;-122.260;2022-07-18T06:40:22;30.55;;;4.30;;
54005;SDS011;39919;38.160;-122.260;2022-07-18T06:42:52;40.30;;;5.43;;
54005;SDS011;39919;38.160;-122.260;2022-07-18T06:45:23;22.48;;;3.90;;
54005;SDS011;39919;38.160;-122.260;2022-07-18T06:47:52;22.75;;;4.22;;
54005;SDS011;39919;38.160;-122.260;2022-07-18T06:50:21;28.20;;;5.18;;
54005;SDS011;39919;38.160;-122.260;2022-07-18T06:52:53;29.23;;;5.35;;
54005;SDS011;39919;38.160;-122.260;2022-07-18T06:55:22;27.67;;;4.18;;
54005;SDS011;39919;38.160;-122.260;2022-07-18T06:57:52;29.33;;;4.47;;
54005;SDS011;39919;38.160;-122.260;2022-07-18T07:00:23;38.15;;;5.95;;
54005;SDS011;39919;38.160;-122.260;2022-07-18T07:02:55;35.75;;;6.07;;
54005;SDS011;39919;38.160;-122.260;2022-07-18T07:05:24;23.40;;;4.15;;
54005;SDS011;39919;38.160;-122.260;2022-07-18T07:07:55;21.88;;;3.42;;
54005;SDS011;39919;38.160;-122.260;2022-07-18T07:10:30;26.63;;;4.65;;
54005;SDS011;39919;38.160;-122.260;2022-07-18T07:13:00;31.75;;;4.40;;
54005;SDS011;39919;38.160;-122.260;2022-07-18T07:15:32;29.35;;;4.32;;
54005;SDS011;39919;38.160;-122.260;2022-07-18T07:18:06;23.35;;;4.03;;
54005;SDS011;39919;38.160;-122.260;2022-07-18T07:20:36;31.48;;;4.97;;
54005;SDS011;39919;38.160;-122.260;2022-07-18T07:23:05;29.92;;;5.15;;
54005;SDS011;39919;38.160;-122.260;2022-07-18T07:25:35;43.72;;;6.60;;
54005;SDS011;39919;38.160;-122.260;2022-07-18T07:28:05;43.15;;;6.28;;
54005;SDS011;39919;38.160;-122.260;2022-07-18T07:30:38;30.40;;;5.25;;
54005;SDS011;39919;38.160;-122.260;2022-07-18T07:33:09;25.85;;;5.20;;
54005;SDS011;39919;38.160;-122.260;2022-07-18T07:35:38;25.20;;;4.95;;
54005;SDS011;39919;38.160;-122.260;2022-07-18T07:38:07;27.95;;;4.13;;
54005;SDS011;39919;38.160;-122.260;2022-07-18T07:40:43;30.30;;;4.47;;
54005;SDS011;39919;38.160;-122.260;2022-07-18T07:43:16;27.85;;;4.65;;
54005;SDS011;39919;38.160;-122.260;2022-07-18T07:45:47;30.75;;;4.25;;
54005;SDS011;39919;38.160;-122.260;2022-07-18T07:48:18;22.08;;;3.38;;
54005;SDS011;39919;38.160;-122.260;2022-07-18T07:50:47;39.78;;;6.93;;
54005;SDS011;39919;38.160;-122.260;2022-07-18T07:53:17;25.33;;;5.13;;
54005;SDS011;39919;38.160;-122.260;2022-07-18T07:55:46;35.38;;;5.10;;
54005;SDS011;39919;38.160;-122.260;2022-07-18T07:58:14;26.92;;;4.40;;
54005;SDS011;39919;38.160;-122.260;2022-07-18T08:00:48;33.70;;;5.63;;
54005;SDS011;39919;38.160;-122.260;2022-07-18T08:03:20;22.38;;;3.80;;
54005;SDS011;39919;38.160;-122.260;2022-07-18T08:05:52;39.38;;;5.28;;
54005;SDS011;39919;38.160;-122.260;2022-07-18T08:08:21;35.00;;;6.18;;
54005;SDS011;39919;38.160;-122.260;2022-07-18T08:10:51;27.27;;;4.32;;
54005;SDS011;39919;38.160;-122.260;2022-07-18T08:13:20;29.92;;;4.72;;
54005;SDS011;39919;38.160;-122.260;2022-07-18T08:15:52;23.90;;;4.90;;
54005;SDS011;39919;38.160;-122.260;2022-07-18T08:18:21;40.42;;;5.70;;
54005;SDS011;39919;38.160;-122.260;2022-07-18T08:20:50;37.55;;;5.75;;
54005;SDS011;39919;38.160;-122.260;2022-07-18T08:23:19;31.95;;;5.28;;
54005;SDS011;39919;38.160;-122.260;2022-07-18T08:25:49;28.85;;;5.47;;
54005;SDS011;39919;38.160;-122.260;2022-07-18T08:28:18;25.02;;;4.88;;
54005;SDS011;39919;38.160;-122.260;2022-07-18T08:30:47;31.75;;;4.63;;
54005;SDS011;39919;38.160;-122.260;2022-07-18T08:33:17;29.15;;;3.70;;
54005;SDS011;39919;38.160;-122.260;2022-07-18T08:35:46;39.47;;;5.90;;
54005;SDS011;39919;38.160;-122.260;2022-07-18T08:38:16;28.17;;;4.68;;
54005;SDS011;39919;38.160;-122.260;2022-07-18T08:40:45;36.35;;;4.95;;
54005;SDS011;39919;38.160;-122.260;2022-07-18T08:43:16;25.30;;;4.45;;
54005;SDS011;39919;38.160;-122.260;2022-07-18T08:45:46;36.00;;;6.10;;
54005;SDS011;39919;38.160;-122.260;2022-07-18T08:48:17;29.17;;;5.25;;
54005;SDS011;39919;38.160;-122.260;2022-07-18T08:50:46;29.17;;;5.03;;
54005;SDS011;39919;38.160;-122.260;2022-07-18T08:53:17;26.13;;;3.88;;
54005;SDS011;39919;38.160;-122.260;2022-07-18T08:55:47;35.80;;;5.38;;
54005;SDS011;39919;38.160;-122.260;2022-07-18T08:58:28;29.10;;;5.40;;
54005;SDS011;39919;38.160;-122.260;2022-07-18T09:01:00;28.63;;;5.85;;
54005;SDS011;39919;38.160;-122.260;2022-07-18T09:03:33;38.30;;;7.22;;
54005;SDS011;39919;38.160;-122.260;2022-07-18T09:06:03;33.95;;;6.90;;
54005;SDS011;39919;38.160;-122.260;2022-07-18T09:08:35;37.83;;;5.53;;
54005;SDS011;39919;38.160;-122.260;2022-07-18T09:11:08;44.00;;;6.50;;
54005;SDS011;39919;38.160;-122.260;2022-07-18T09:13:40;34.83;;;5.55;;
54005;SDS011;39919;38.160;-122.260;2022-07-18T09:16:10;39.40;;;6.10;;
54005;SDS011;39919;38.160;-122.260;2022-07-18T09:18:43;39.25;;;6.05;;
54005;SDS011;39919;38.160;-122.260;2022-07-18T09:21:14;31.48;;;5.45;;
54005;SDS011;39919;38.160;-122.260;2022-07-18T09:23:48;39.45;;;5.45;;
54005;SDS011;39919;38.160;-122.260;2022-07-18T09:26:33;32.20;;;5.70;;
54005;SDS011;39919;38.160;-122.260;2022-07-18T09:29:06;31.70;;;4.95;;
54005;SDS011;39919;38.160;-122.260;2022-07-18T09:31:35;34.17;;;5.22;;
54005;SDS011;39919;38.160;-122.260;2022-07-18T09:34:07;32.72;;;5.93;;
54005;SDS011;39919;38.160;-122.260;2022-07-18T09:36:37;25.73;;;4.00;;
54005;SDS011;39919;38.160;-122.260;2022-07-18T09:39:24;39.10;;;6.47;;
54005;SDS011;39919;38.160;-122.260;2022-07-18T09:42:12;43.45;;;6.85;;
54005;SDS011;39919;38.160;-122.260;2022-07-18T09:44:41;29.50;;;4.63;;
54005;SDS011;39919;38.160;-122.260;2022-07-18T09:47:10;41.17;;;5.65;;
54005;SDS011;39919;38.160;-122.260;2022-07-18T09:49:41;35.83;;;6.95;;
54005;SDS011;39919;38.160;-122.260;2022-07-18T09:52:10;37.55;;;5.28;;
54005;SDS011;39919;38.160;-122.260;2022-07-18T09:54:40;40.67;;;5.38;;
54005;SDS011;39919;38.160;-122.260;2022-07-18T09:57:22;32.28;;;5.72;;
54005;SDS011;39919;38.160;-122.260;2022-07-18T09:59:52;35.83;;;5.72;;
54005;SDS011;39919;38.160;-122.260;2022-07-18T10:02:22;39.42;;;6.40;;
54005;SDS011;39919;38.160;-122.260;2022-07-18T10:04:56;39.67;;;5.85;;
54005;SDS011;39919;38.160;-122.260;2022-07-18T10:07:25;33.38;;;5.32;;
54005;SDS011;39919;38.160;-122.260;2022-07-18T10:09:54;25.10;;;4.47;;
54005;SDS011;39919;38.160;-122.260;2022-07-18T10:12:23;31.98;;;5.07;;
54005;SDS011;39919;38.160;-122.260;2022-07-18T10:14:53;35.13;;;5.80;;
54005;SDS011;39919;38.160;-122.260;2022-07-18T10:17:22;32.60;;;6.22;;
54005;SDS011;39919;38.160;-122.260;2022-07-18T10:19:53;25.33;;;4.38;;
54005;SDS011;39919;38.160;-122.260;2022-07-18T10:22:22;33.42;;;5.40;;
54005;SDS011;39919;38.160;-122.260;2022-07-18T10:24:51;29.25;;;4.85;;
54005;SDS011;39919;38.160;-122.260;2022-07-18T10:27:20;30.98;;;5.35;;
54005;SDS011;39919;38.160;-122.260;2022-07-18T10:32:21;28.17;;;4.38;;
54005;SDS011;39919;38.160;-122.260;2022-07-18T10:35:03;33.03;;;4.15;;
54005;SDS011;39919;38.160;-122.260;2022-07-18T10:37:31;40.15;;;5.65;;
54005;SDS011;39919;38.160;-122.260;2022-07-18T10:42:45;27.45;;;4.78;;
54005;SDS011;39919;38.160;-122.260;2022-07-18T10:48:00;39.13;;;5.85;;
54005;SDS011;39919;38.160;-122.260;2022-07-18T10:51:14;27.80;;;4.95;;
54005;SDS011;39919;38.160;-122.260;2022-07-18T11:02:33;24.10;;;4.63;;
54005;SDS011;39919;38.160;-122.260;2022-07-18T11:08:20;44.97;;;6.07;;
54005;SDS011;39919;38.160;-122.260;2022-07-18T11:11:04;26.77;;;4.60;;
54005;SDS011;39919;38.160;-122.260;2022-07-18T11:13:37;29.42;;;5.30;;
54005;SDS011;39919;38.160;-122.260;2022-07-18T11:16:09;31.90;;;6.65;;
54005;SDS011;39919;38.160;-122.260;2022-07-18T11:21:45;32.58;;;4.97;;
54005;SDS011;39919;38.160;-122.260;2022-07-18T11:24:26;33.75;;;5.40;;
54005;SDS011;39919;38.160;-122.260;2022-07-18T11:26:58;39.15;;;4.78;;
54005;SDS011;39919;38.160;-122.260;2022-07-18T11:29:33;42.15;;;6.53;;
54005;SDS011;39919;38.160;-122.260;2022-07-18T11:32:09;31.23;;;5.30;;
54005;SDS011;39919;38.160;-122.260;2022-07-18T11:34:38;35.67;;;5.38;;
54005;SDS011;39919;38.160;-122.260;2022-07-18T11:37:16;36.55;;;4.97;;
54005;SDS011;39919;38.160;-122.260;2022-07-18T11:39:47;23.42;;;3.88;;
54005;SDS011;39919;38.160;-122.260;2022-07-18T11:42:34;36.25;;;4.88;;
54005;SDS011;39919;38.160;-122.260;2022-07-18T11:45:04;40.78;;;4.78;;
54005;SDS011;39919;38.160;-122.260;2022-07-18T11:47:37;28.98;;;5.53;;
54005;SDS011;39919;38.160;-122.260;2022-07-18T11:50:07;36.78;;;5.90;;
54005;SDS011;39919;38.160;-122.260;2022-07-18T11:52:36;37.60;;;6.15;;
54005;SDS011;39919;38.160;-122.260;2022-07-18T11:55:10;39.35;;;5.10;;
54005;SDS011;39919;38.160;-122.260;2022-07-18T11:57:40;35.25;;;5.13;;
54005;SDS011;39919;38.160;-122.260;2022-07-18T12:00:16;34.05;;;5.65;;
54005;SDS011;39919;38.160;-122.260;2022-07-18T12:05:34;34.33;;;5.25;;
54005;SDS011;39919;38.160;-122.260;2022-07-18T12:11:06;37.78;;;5.53;;
54005;SDS011;39919;38.160;-122.260;2022-07-18T12:13:42;30.20;;;4.32;;
54005;SDS011;39919;38.160;-122.260;2022-07-18T12:16:25;32.15;;;5.07;;
54005;SDS011;39919;38.160;-122.260;2022-07-18T12:18:56;36.67;;;7.30;;
54005;SDS011;39919;38.160;-122.260;2022-07-18T12:21:41;31.50;;;5.97;;
54005;SDS011;39919;38.160;-122.260;2022-07-18T12:27:16;31.55;;;4.88;;
54005;SDS011;39919;38.160;-122.260;2022-07-18T12:30:00;28.13;;;4.50;;
54005;SDS011;39919;38.160;-122.260;2022-07-18T12:32:41;33.58;;;5.22;;
54005;SDS011;39919;38.160;-122.260;2022-07-18T12:35:13;26.33;;;5.00;;
54005;SDS011;39919;38.160;-122.260;2022-07-18T12:37:53;25.40;;;4.28;;
54005;SDS011;39919;38.160;-122.260;2022-07-18T12:40:25;16.42;;;3.63;;
54005;SDS011;39919;38.160;-122.260;2022-07-18T12:43:10;17.92;;;3.55;;
54005;SDS011;39919;38.160;-122.260;2022-07-18T12:45:40;17.85;;;2.85;;
54005;SDS011;39919;38.160;-122.260;2022-07-18T12:48:12;28.13;;;4.45;;
54005;SDS011;39919;38.160;-122.260;2022-07-18T12:50:46;27.10;;;4.32;;
54005;SDS011;39919;38.160;-122.260;2022-07-18T12:55:53;29.58;;;4.25;;
54005;SDS011;39919;38.160;-122.260;2022-07-18T12:58:24;30.25;;;4.43;;
54005;SDS011;39919;38.160;-122.260;2022-07-18T13:00:54;24.23;;;3.42;;
54005;SDS011;39919;38.160;-122.260;2022-07-18T13:03:23;27.63;;;3.95;;
54005;SDS011;39919;38.160;-122.260;2022-07-18T13:05:56;23.95;;;4.25;;
54005;SDS011;39919;38.160;-122.260;2022-07-18T13:08:25;29.55;;;5.35;;
54005;SDS011;39919;38.160;-122.260;2022-07-18T13:10:54;15.13;;;3.33;;
54005;SDS011;39919;38.160;-122.260;2022-07-18T13:13:26;10.43;;;1.75;;
54005;SDS011;39919;38.160;-122.260;2022-07-18T13:15:56;15.75;;;2.65;;
54005;SDS011;39919;38.160;-122.260;2022-07-18T13:18:25;13.38;;;2.25;;
54005;SDS011;39919;38.160;-122.260;2022-07-18T13:20:54;19.73;;;2.80;;
54005;SDS011;39919;38.160;-122.260;2022-07-18T13:23:23;25.33;;;4.30;;
54005;SDS011;39919;38.160;-122.260;2022-07-18T13:25:52;27.67;;;4.65;;
54005;SDS011;39919;38.160;-122.260;2022-07-18T13:28:24;32.35;;;4.50;;
54005;SDS011;39919;38.160;-122.260;2022-07-18T13:30:55;21.83;;;3.90;;
54005;SDS011;39919;38.160;-122.260;2022-07-18T13:33:24;28.00;;;5.30;;
54005;SDS011;39919;38.160;-122.260;2022-07-18T13:35:53;35.75;;;6.57;;
54005;SDS011;39919;38.160;-122.260;2022-07-18T13:38:26;27.98;;;5.22;;
54005;SDS011;39919;38.160;-122.260;2022-07-18T13:40:55;29.00;;;5.78;;
54005;SDS011;39919;38.160;-122.260;2022-07-18T13:43:33;25.38;;;4.07;;
54005;SDS011;39919;38.160;-122.260;2022-07-18T13:46:05;36.15;;;5.47;;
54005;SDS011;39919;38.160;-122.260;2022-07-18T13:48:38;35.85;;;5.60;;
54005;SDS011;39919;38.160;-122.260;2022-07-18T13:51:08;32.15;;;5.65;;
54005;SDS011;39919;38.160;-122.260;2022-07-18T13:53:38;36.40;;;5.20;;
54005;SDS011;39919;38.160;-122.260;2022-07-18T13:56:10;36.17;;;5.43;;
54005;SDS011;39919;38.160;-122.260;2022-07-18T13:58:41;39.75;;;6.45;;
54005;SDS011;39919;38.160;-122.260;2022-07-18T14:01:11;28.67;;;4.80;;
54005;SDS011;39919;38.160;-122.260;2022-07-18T14:03:43;24.50;;;4.70;;
54005;SDS011;39919;38.160;-122.260;2022-07-18T14:06:12;37.80;;;5.72;;
54005;SDS011;39919;38.160;-122.260;2022-07-18T14:08:42;40.22;;;6.95;;
54005;SDS011;39919;38.160;-122.260;2022-07-18T14:11:11;32.63;;;5.53;;
54005;SDS011;39919;38.160;-122.260;2022-07-18T14:13:43;33.33;;;5.25;;
54005;SDS011;39919;38.160;-122.260;2022-07-18T14:16:16;33.40;;;5.32;;
54005;SDS011;39919;38.160;-122.260;2022-07-18T14:18:46;34.35;;;5.93;;
54005;SDS011;39919;38.160;-122.260;2022-07-18T14:21:15;36.85;;;5.75;;
54005;SDS011;39919;38.160;-122.260;2022-07-18T14:23:44;37.90;;;5.70;;
54005;SDS011;39919;38.160;-122.260;2022-07-18T14:26:27;36.22;;;6.72;;
54005;SDS011;39919;38.160;-122.260;2022-07-18T14:28:59;38.05;;;5.35;;
54005;SDS011;39919;38.160;-122.260;2022-07-18T14:33:56;34.33;;;5.00;;
54005;SDS011;39919;38.160;-122.260;2022-07-18T14:36:25;39.00;;;5.55;;
54005;SDS011;39919;38.160;-122.260;2022-07-18T14:39:01;33.53;;;5.07;;
54005;SDS011;39919;38.160;-122.260;2022-07-18T14:41:30;26.77;;;4.60;;
54005;SDS011;39919;38.160;-122.260;2022-07-18T14:44:07;31.75;;;6.03;;
54005;SDS011;39919;38.160;-122.260;2022-07-18T14:46:38;42.58;;;5.55;;
54005;SDS011;39919;38.160;-122.260;2022-07-18T14:49:11;36.38;;;5.65;;
54005;SDS011;39919;38.160;-122.260;2022-07-18T14:51:50;27.15;;;4.35;;
54005;SDS011;39919;38.160;-122.260;2022-07-18T14:54:26;30.52;;;4.93;;
54005;SDS011;39919;38.160;-122.260;2022-07-18T14:56:56;26.60;;;4.45;;
54005;SDS011;39919;38.160;-122.260;2022-07-18T14:59:32;38.28;;;5.85;;
54005;SDS011;39919;38.160;-122.260;2022-07-18T15:02:01;37.05;;;6.03;;
54005;SDS011;39919;38.160;-122.260;2022-07-18T15:04:31;23.40;;;4.82;;
54005;SDS011;39919;38.160;-122.260;2022-07-18T15:07:01;26.98;;;5.40;;
54005;SDS011;39919;38.160;-122.260;2022-07-18T15:09:30;21.30;;;3.85;;